Time;durP1;ratioP1;P1;durP2;ratioP2;P2;SDS_P1;SDS_P2;PMS_P1;PMS_P2;Temp;Humidity;BMP_temperature;BMP_pressure;BME280_temperature;BME280_humidity;BME280_pressure;Samples;Min_cycle;Max_cycle;Signal;HPM_P1;HPM_P2
2020/12/03 00:01:21;;;;;;;193.57;67.90;;;;;;;-3.35;77.42;98929.94;125510;1095;65243;-87
2020/12/03 00:03:54;;;;;;;200.50;68.15;;;;;;;-3.31;77.57;98927.25;125539;1095;65438;-89
2020/12/03 00:06:28;;;;;;;226.50;75.27;;;;;;;-3.31;76.89;98927.25;125519;1095;65279;-87
2020/12/03 00:08:57;;;;;;;186.37;65.40;;;;;;;-3.30;76.92;98920.28;125487;1096;65123;-91
2020/12/03 00:11:27;;;;;;;212.30;67.03;;;;;;;-3.29;77.88;98916.77;125532;1095;65170;-86
2020/12/03 00:13:54;;;;;;;210.00;66.73;;;;;;;-3.27;76.96;98925.43;125274;1096;65166;-87
2020/12/03 00:16:21;;;;;;;201.93;71.83;;;;;;;-3.22;77.51;98918.37;125489;1095;65220;-86
2020/12/03 00:18:47;;;;;;;204.67;69.03;;;;;;;-3.18;77.99;98920.05;125506;1095;65163;-90
2020/12/03 00:21:14;;;;;;;224.70;72.10;;;;;;;-3.16;77.42;98918.27;125468;1095;65251;-88
2020/12/03 00:23:43;;;;;;;212.27;72.90;;;;;;;-3.13;77.41;98923.41;125499;1094;65139;-87
2020/12/03 00:26:10;;;;;;;216.67;69.47;;;;;;;-3.10;77.43;98928.59;125274;1095;65226;-89
2020/12/03 00:28:42;;;;;;;224.00;72.95;;;;;;;-3.10;77.91;98936.43;125419;1095;65249;-87
2020/12/03 00:31:09;;;;;;;215.83;71.70;;;;;;;-3.14;77.94;98933.89;125527;1095;65235;-87
2020/12/03 00:33:35;;;;;;;202.67;66.30;;;;;;;-3.15;77.82;98921.73;125477;1095;65190;-89
2020/12/03 00:36:02;;;;;;;219.13;70.40;;;;;;;-3.17;77.15;98921.77;125901;1095;65249;-85
2020/12/03 00:38:29;;;;;;;203.90;70.70;;;;;;;-3.19;77.97;98923.53;125526;1095;65268;-89
2020/12/03 00:40:55;;;;;;;211.97;71.93;;;;;;;-3.18;77.04;98914.83;125487;1095;65445;-88
2020/12/03 00:43:21;;;;;;;227.03;71.87;;;;;;;-3.16;77.48;98914.79;125536;1095;65140;-87
2020/12/03 00:45:48;;;;;;;226.58;75.45;;;;;;;-3.15;77.47;98904.31;125501;1095;65185;-87
2020/12/03 00:48:17;;;;;;;218.60;71.97;;;;;;;-3.19;77.10;98894.80;125330;1096;65159;-88
2020/12/03 00:50:44;;;;;;;193.53;68.70;;;;;;;-3.22;76.90;98894.88;125344;1095;65147;-88
2020/12/03 00:53:11;;;;;;;204.90;69.13;;;;;;;-3.21;77.58;98887.89;125515;1095;65307;-86
2020/12/03 00:55:37;;;;;;;203.63;67.47;;;;;;;-3.14;77.47;98887.73;125490;1095;65151;-90
2020/12/03 00:58:06;;;;;;;207.50;67.93;;;;;;;-3.11;77.32;98877.25;125451;1095;65123;-87
2020/12/03 01:00:32;;;;;;;195.43;66.73;;;;;;;-3.08;77.60;98881.53;125452;1095;65201;-87
2020/12/03 01:02:59;;;;;;;207.55;71.20;;;;;;;-3.06;77.23;98877.98;125510;1095;65153;-87
2020/12/03 01:05:25;;;;;;;193.53;68.40;;;;;;;-3.07;78.12;98881.50;125485;1095;65377;-87
2020/12/03 01:07:52;;;;;;;214.13;71.97;;;;;;;-3.06;78.13;98872.77;125428;1096;65195;-89
2020/12/03 01:10:26;;;;;;;229.60;73.83;;;;;;;-3.10;77.63;98868.52;125495;1095;65233;-89
2020/12/03 01:12:52;;;;;;;223.53;70.63;;;;;;;-3.14;76.95;98866.84;125490;1095;65492;-88
2020/12/03 01:15:20;;;;;;;213.50;70.50;;;;;;;-3.20;77.91;98871.33;125475;1095;65219;-87
2020/12/03 01:17:46;;;;;;;208.45;69.35;;;;;;;-3.19;77.19;98871.29;125934;1095;65601;-90
2020/12/03 01:20:20;;;;;;;210.20;69.25;;;;;;;-3.20;77.67;98868.72;125319;1095;65164;-88
2020/12/03 01:22:47;;;;;;;181.50;63.85;;;;;;;-3.22;77.43;98866.14;125603;1095;65219;-91
2020/12/03 01:25:16;;;;;;;209.63;69.87;;;;;;;-3.27;77.89;98865.37;125530;1095;65147;-87
2020/12/03 01:27:43;;;;;;;202.40;67.60;;;;;;;-3.28;77.47;98850.59;125722;1095;65327;-88
2020/12/03 01:30:10;;;;;;;205.57;67.17;;;;;;;-3.28;77.47;98842.77;125763;1095;65431;-88
2020/12/03 01:32:37;;;;;;;210.90;69.90;;;;;;;-3.24;77.14;98847.05;125856;1096;65261;-86
2020/12/03 01:35:05;;;;;;;192.95;65.20;;;;;;;-3.22;78.04;98841.78;125572;1095;65169;-86
2020/12/03 01:37:32;;;;;;;196.25;69.55;;;;;;;-3.17;78.28;98840.80;125641;1096;65133;-88
2020/12/03 01:39:58;;;;;;;206.20;69.57;;;;;;;-3.13;78.11;98833.74;125680;1095;65230;-88
2020/12/03 01:42:24;;;;;;;203.07;71.47;;;;;;;-3.08;77.62;98829.30;126122;1095;65201;-90
2020/12/03 01:44:54;;;;;;;200.23;66.97;;;;;;;-3.04;77.65;98830.95;125474;1096;65162;-85
2020/12/03 01:47:30;;;;;;;194.23;63.70;;;;;;;-3.03;77.03;98819.61;125651;1095;65604;-84
2020/12/03 01:49:58;;;;;;;209.53;67.47;;;;;;;-3.03;77.70;98807.41;125520;1095;65204;-87
2020/12/03 01:52:25;;;;;;;202.70;66.25;;;;;;;-3.01;77.66;98808.22;125894;1095;65176;-86
2020/12/03 01:54:52;;;;;;;201.77;67.17;;;;;;;-3.02;77.81;98801.28;125555;1096;65250;-85
2020/12/03 01:57:29;;;;;;;191.57;64.30;;;;;;;-3.01;77.04;98796.91;125286;1095;65144;-87
2020/12/03 02:00:09;;;;;;;193.07;65.20;;;;;;;-3.02;78.05;98790.83;125268;1095;65252;-87
2020/12/03 02:02:46;;;;;;;208.17;68.37;;;;;;;-3.01;77.58;98792.55;125860;1095;65137;-88
2020/12/03 02:05:26;;;;;;;196.40;65.07;;;;;;;-3.03;77.22;98781.28;125555;1095;65073;-88
2020/12/03 02:07:52;;;;;;;194.77;64.63;;;;;;;-3.03;77.72;98781.28;125494;1095;65176;-85
2020/12/03 02:10:23;;;;;;;182.93;63.57;;;;;;;-3.02;78.14;98780.38;125694;1096;65150;-86
2020/12/03 02:12:51;;;;;;;199.40;64.17;;;;;;;-3.01;77.97;98779.48;126043;1095;65176;-86
2020/12/03 02:15:19;;;;;;;185.30;61.33;;;;;;;-3.00;77.86;98772.51;125706;1095;65175;-87
2020/12/03 02:17:46;;;;;;;190.67;62.40;;;;;;;-2.97;77.12;98763.76;125803;1096;65176;-91
2020/12/03 02:20:17;;;;;;;185.40;61.15;;;;;;;-2.95;77.80;98754.12;125285;1095;65418;-85
2020/12/03 02:22:44;;;;;;;193.40;62.17;;;;;;;-2.94;77.52;98751.47;125414;1096;65265;-86
2020/12/03 02:25:13;;;;;;;167.37;56.83;;;;;;;-2.94;77.21;98758.45;125679;1095;65268;-87
2020/12/03 02:27:41;;;;;;;179.75;61.35;;;;;;;-2.96;77.51;98753.27;125667;1095;65166;-88
2020/12/03 02:30:09;;;;;;;187.40;63.27;;;;;;;-2.93;78.20;98749.71;125547;1095;65127;-88
2020/12/03 02:32:37;;;;;;;181.73;62.50;;;;;;;-2.94;77.94;98745.39;125650;1095;65133;-87
2020/12/03 02:35:06;;;;;;;189.70;63.67;;;;;;;-2.93;78.12;98758.41;125562;1096;65163;-87
2020/12/03 02:37:33;;;;;;;200.97;67.53;;;;;;;-2.92;77.63;98743.63;125693;1095;65185;-88
2020/12/03 02:40:00;;;;;;;186.80;63.93;;;;;;;-2.88;77.37;98755.70;125523;1095;65322;-87
2020/12/03 02:42:26;;;;;;;195.07;66.20;;;;;;;-2.86;77.80;98751.28;125525;1095;65246;-90
2020/12/03 02:44:53;;;;;;;197.13;65.67;;;;;;;-2.85;78.03;98760.88;125278;1095;65242;-87
2020/12/03 02:47:22;;;;;;;181.73;61.10;;;;;;;-2.85;78.25;98756.50;125638;1095;65243;-90
2020/12/03 02:49:49;;;;;;;179.47;63.07;;;;;;;-2.83;77.32;98762.55;125572;1095;65203;-87
2020/12/03 02:52:22;;;;;;;187.27;62.23;;;;;;;-2.81;77.77;98754.66;125560;1095;65102;-89
2020/12/03 02:54:50;;;;;;;186.43;60.50;;;;;;;-2.78;78.03;98759.83;125588;1096;65219;-87
2020/12/03 02:57:17;;;;;;;193.87;61.57;;;;;;;-2.77;77.89;98754.56;125536;1095;65150;-88
2020/12/03 02:59:44;;;;;;;187.03;62.70;;;;;;;-2.75;77.15;98763.22;125584;1095;65102;-87
2020/12/03 03:02:11;;;;;;;194.37;62.67;;;;;;;-2.75;78.36;98754.52;125636;1095;65178;-87
2020/12/03 03:04:38;;;;;;;173.93;59.47;;;;;;;-2.77;78.23;98754.56;125558;1095;65257;-85
2020/12/03 03:07:06;;;;;;;191.40;63.90;;;;;;;-2.73;78.24;98742.30;125526;1095;65185;-85
2020/12/03 03:09:33;;;;;;;184.43;61.10;;;;;;;-2.71;78.26;98743.11;125498;1095;65220;-86
2020/12/03 03:12:00;;;;;;;179.17;61.73;;;;;;;-2.68;78.41;98743.02;125550;1095;65163;-87
2020/12/03 03:14:27;;;;;;;162.53;59.53;;;;;;;-2.63;77.67;98738.55;125536;1095;65150;-90
2020/12/03 03:16:54;;;;;;;174.60;62.35;;;;;;;-2.61;77.92;98736.78;125511;1095;65166;-88
2020/12/03 03:19:22;;;;;;;159.87;56.50;;;;;;;-2.54;78.36;98734.88;125532;1095;65176;-85
2020/12/03 03:21:50;;;;;;;178.17;63.00;;;;;;;-2.51;77.50;98730.41;125281;1096;65326;-87
2020/12/03 03:24:18;;;;;;;183.17;62.83;;;;;;;-2.48;77.33;98724.27;125515;1095;65258;-86
2020/12/03 03:26:46;;;;;;;187.70;64.93;;;;;;;-2.45;77.57;98732.88;125511;1095;65323;-88
2020/12/03 03:29:13;;;;;;;178.07;61.50;;;;;;;-2.40;78.59;98729.30;125542;1095;65155;-87
2020/12/03 03:31:41;;;;;;;192.57;62.20;;;;;;;-2.39;78.33;98720.55;125515;1095;65137;-85
2020/12/03 03:34:09;;;;;;;175.87;61.50;;;;;;;-2.36;78.17;98717.84;125529;1095;65175;-85
2020/12/03 03:36:37;;;;;;;181.67;62.60;;;;;;;-2.37;78.33;98700.44;125499;1095;65271;-85
2020/12/03 03:39:06;;;;;;;179.60;61.07;;;;;;;-2.35;78.13;98699.52;125516;1095;65157;-86
2020/12/03 03:41:35;;;;;;;174.70;60.33;;;;;;;-2.32;78.49;98699.42;125518;1095;65133;-87
2020/12/03 03:44:02;;;;;;;169.10;57.60;;;;;;;-2.28;77.33;98689.75;125489;1095;65160;-85
2020/12/03 03:46:30;;;;;;;166.87;60.70;;;;;;;-2.26;77.39;98688.80;125504;1095;65262;-90
2020/12/03 03:48:57;;;;;;;172.70;60.53;;;;;;;-2.25;78.69;98687.04;125469;1095;65123;-85
2020/12/03 03:51:24;;;;;;;139.17;50.93;;;;;;;-2.26;77.45;98693.17;125868;1095;65255;-85
2020/12/03 03:53:51;;;;;;;156.57;56.97;;;;;;;-2.30;78.54;98695.00;125532;1095;65252;-85
2020/12/03 03:56:18;;;;;;;171.80;58.87;;;;;;;-2.28;77.76;98689.75;125537;1095;65525;-86
2020/12/03 03:58:44;;;;;;;154.33;54.50;;;;;;;-2.26;78.48;98688.80;125455;1095;65204;-86
2020/12/03 04:01:11;;;;;;;169.37;58.10;;;;;;;-2.22;78.46;98679.12;125749;1095;65181;-84
2020/12/03 04:03:37;;;;;;;168.27;57.30;;;;;;;-2.22;77.57;98673.90;125351;1096;65179;-86
2020/12/03 04:06:05;;;;;;;148.77;53.17;;;;;;;-2.23;78.56;98677.39;125529;1095;65136;-86
2020/12/03 04:08:32;;;;;;;152.50;56.33;;;;;;;-2.28;77.65;98671.45;125436;1096;65536;-84
2020/12/03 04:11:00;;;;;;;159.67;57.23;;;;;;;-2.29;77.05;98672.31;125216;1096;65288;-85
2020/12/03 04:13:28;;;;;;;163.00;57.17;;;;;;;-2.29;77.51;98664.47;125865;1095;65130;-88
2020/12/03 04:15:54;;;;;;;155.17;54.13;;;;;;;-2.26;77.15;98667.87;125569;1095;65178;-85
2020/12/03 04:18:27;;;;;;;163.50;54.33;;;;;;;-2.22;78.66;98668.67;125587;1095;65162;-86
2020/12/03 04:20:56;;;;;;;164.00;59.30;;;;;;;-2.21;78.10;98666.00;125502;1095;65194;-86
2020/12/03 04:23:23;;;;;;;164.50;57.20;;;;;;;-2.22;78.25;98653.83;125994;1095;65277;-83
2020/12/03 04:25:50;;;;;;;166.20;56.20;;;;;;;-2.21;78.44;98644.22;125573;1095;65194;-85
2020/12/03 04:28:17;;;;;;;157.50;55.97;;;;;;;-2.19;77.61;98651.11;125285;1096;65249;-84
2020/12/03 04:30:44;;;;;;;165.87;57.87;;;;;;;-2.13;77.70;98646.63;125569;1096;65137;-87
2020/12/03 04:33:12;;;;;;;160.23;58.03;;;;;;;-2.09;78.33;98643.03;125720;1095;65150;-84
2020/12/03 04:35:38;;;;;;;166.37;56.40;;;;;;;-2.07;77.84;98642.07;125695;1095;66444;-87
2020/12/03 04:38:07;;;;;;;159.30;58.57;;;;;;;-2.06;78.25;98633.32;125573;1095;65137;-88
2020/12/03 04:40:36;;;;;;;163.57;57.63;;;;;;;-2.06;78.17;98635.94;125595;1095;65179;-88
2020/12/03 04:43:17;;;;;;;158.00;57.97;;;;;;;-2.05;78.33;98629.80;125979;1095;65172;-86
2020/12/03 04:45:47;;;;;;;167.73;59.40;;;;;;;-2.06;77.24;98625.47;125570;1095;65210;-87
2020/12/03 04:48:20;;;;;;;155.37;58.63;;;;;;;-2.07;77.08;98626.38;125483;1095;65240;-86
2020/12/03 04:51:08;;;;;;;165.50;60.87;;;;;;;-2.06;77.48;98617.62;125548;1095;65255;-85
2020/12/03 04:53:49;;;;;;;155.90;57.90;;;;;;;-2.04;77.46;98618.42;125910;1095;65154;-86
2020/12/03 04:56:29;;;;;;;168.25;60.05;;;;;;;-2.04;78.08;98618.42;125571;1095;65204;-85
2020/12/03 04:59:12;;;;;;;161.85;57.05;;;;;;;-1.99;77.59;98613.07;125531;1095;65242;-87
2020/12/03 05:01:41;;;;;;;154.55;57.60;;;;;;;-1.97;78.36;98609.52;125604;1095;65403;-89
2020/12/03 05:04:11;;;;;;;149.67;55.93;;;;;;;-1.94;78.18;98617.27;125570;1095;65153;-86
2020/12/03 05:06:43;;;;;;;164.53;59.33;;;;;;;-1.92;77.87;98602.38;125744;1095;65532;-84
2020/12/03 05:09:33;;;;;;;158.37;58.40;;;;;;;-1.87;78.39;98596.16;125534;1095;65162;-89
2020/12/03 05:12:11;;;;;;;149.77;56.83;;;;;;;-1.87;78.16;98591.78;125185;1098;65140;-88
2020/12/03 05:14:50;;;;;;;144.20;55.47;;;;;;;-1.85;78.31;98594.34;125234;1098;65316;-84
2020/12/03 05:17:26;;;;;;;154.13;54.73;;;;;;;-1.86;77.56;98595.25;125569;1098;65230;-88
2020/12/03 05:19:55;;;;;;;154.17;53.27;;;;;;;-1.85;78.07;98603.05;125251;1098;65445;-83
2020/12/03 05:22:22;;;;;;;144.37;54.70;;;;;;;-1.85;78.02;98597.81;125220;1099;65256;-84
2020/12/03 05:24:48;;;;;;;146.93;52.20;;;;;;;-1.80;78.69;98595.07;125561;1098;65172;-86
2020/12/03 05:27:28;;;;;;;169.47;55.57;;;;;;;-1.78;77.59;98593.26;125181;1098;65453;-85
2020/12/03 05:29:55;;;;;;;196.97;63.43;;;;;;;-1.77;78.37;98595.00;125194;1098;65128;-85
2020/12/03 05:32:22;;;;;;;174.70;60.45;;;;;;;-1.76;78.26;98589.71;125200;1098;65150;-84
2020/12/03 05:34:49;;;;;;;180.57;61.47;;;;;;;-1.77;77.61;98590.62;125590;1098;65119;-85
2020/12/03 05:37:17;;;;;;;169.17;59.60;;;;;;;-1.74;77.85;98593.13;125195;1099;65144;-86
2020/12/03 05:39:49;;;;;;;169.33;59.23;;;;;;;-1.69;78.39;98590.37;125362;1098;65140;-83
2020/12/03 05:42:22;;;;;;;156.75;61.25;;;;;;;-1.67;78.31;98592.03;125221;1098;65306;-88
2020/12/03 05:44:56;;;;;;;155.20;57.03;;;;;;;-1.67;77.57;98594.66;125339;1098;65186;-87
2020/12/03 05:47:35;;;;;;;145.30;55.80;;;;;;;-1.65;77.42;98597.25;125298;1098;65275;-84
2020/12/03 05:50:15;;;;;;;147.20;52.60;;;;;;;-1.62;77.74;98591.91;125422;1096;65185;-84
2020/12/03 05:53:13;;;;;;;140.57;52.40;;;;;;;-1.61;77.70;98587.52;125319;1096;65226;-84
2020/12/03 05:55:40;;;;;;;141.43;50.57;;;;;;;-1.61;78.13;98598.85;125948;1095;65079;-84
2020/12/03 05:58:16;;;;;;;149.67;54.13;;;;;;;-1.58;77.47;98583.06;125548;1095;65133;-88
2020/12/03 06:00:43;;;;;;;143.13;52.70;;;;;;;-1.59;77.71;98575.23;125577;1095;65325;-84
2020/12/03 06:03:37;;;;;;;136.40;51.95;;;;;;;-1.61;78.32;98580.52;125503;1095;65090;-87
2020/12/03 06:06:34;;;;;;;139.83;50.77;;;;;;;-1.60;77.66;98576.99;125867;1095;65354;-86
2020/12/03 06:09:19;;;;;;;130.35;49.55;;;;;;;-1.61;77.69;98570.05;125536;1095;65223;-85
2020/12/03 06:12:05;;;;;;;;;;;;;;;-1.59;77.96;98556.91;125581;1095;65156;-86
2020/12/03 06:14:53;;;;;;;137.93;48.43;;;;;;;-1.58;78.08;98559.50;125814;1095;65137;-82
2020/12/03 06:17:39;;;;;;;142.13;50.43;;;;;;;-1.60;77.83;98552.58;125651;1096;65102;-89
2020/12/03 06:20:48;;;;;;;126.43;48.30;;;;;;;-1.62;77.70;98550.02;125715;1095;65278;-87
2020/12/03 06:23:18;;;;;;;118.10;47.70;;;;;;;-1.61;78.79;98556.95;125457;1095;65226;-88
2020/12/03 06:25:59;;;;;;;120.53;45.30;;;;;;;-1.57;77.75;98557.73;125491;1095;65223;-84
2020/12/03 06:28:55;;;;;;;132.47;48.50;;;;;;;-1.55;77.95;98555.91;125542;1095;65240;-85
2020/12/03 06:31:29;;;;;;;130.50;46.30;;;;;;;-1.51;78.56;98547.92;125174;1098;65341;-85
2020/12/03 06:34:03;;;;;;;124.50;45.25;;;;;;;-1.48;77.96;98560.05;125144;1098;65584;-86
2020/12/03 06:36:41;;;;;;;123.25;45.65;;;;;;;-1.44;78.71;98556.44;125208;1098;65160;-88
2020/12/03 06:39:20;;;;;;;126.13;45.67;;;;;;;-1.39;78.21;98550.16;125457;1093;65321;-85
2020/12/03 06:41:53;;;;;;;122.67;48.17;;;;;;;-1.34;78.44;98547.37;125233;1098;65157;-86
2020/12/03 06:44:59;;;;;;;145.10;51.20;;;;;;;-1.29;77.76;98544.61;125261;1098;65268;-87
2020/12/03 06:47:36;;;;;;;140.25;48.75;;;;;;;-1.29;78.48;98552.47;125207;1098;65160;-85
2020/12/03 06:50:24;;;;;;;155.20;51.73;;;;;;;-1.32;78.41;98552.58;125567;1098;65143;-83
2020/12/03 06:53:09;;;;;;;141.50;48.60;;;;;;;-1.29;78.37;98553.31;125225;1098;65166;-85
2020/12/03 06:56:00;;;;;;;134.60;49.73;;;;;;;-1.19;77.65;98556.52;125410;1098;65339;-85
2020/12/03 06:59:15;;;;;;;132.27;45.90;;;;;;;-1.18;77.61;98558.22;125207;1098;65153;-84
2020/12/03 07:02:09;;;;;;;126.70;45.97;;;;;;;-1.13;78.20;98556.31;124945;1101;65342;-86
2020/12/03 07:05:14;;;;;;;127.73;46.90;;;;;;;-1.05;78.12;98550.81;124838;1101;65143;-83
2020/12/03 07:07:48;;;;;;;123.40;48.73;;;;;;;-0.98;77.55;98547.92;124767;1101;65192;-86
2020/12/03 07:10:26;;;;;;;118.13;43.63;;;;;;;-0.89;77.66;98552.87;125190;1098;65207;-87
2020/12/03 07:13:20;;;;;;;97.37;38.80;;;;;;;-0.85;78.17;98533.49;125156;1098;65143;-84
2020/12/03 07:16:05;;;;;;;73.93;30.77;;;;;;;-0.83;78.67;98534.31;125356;1098;65080;-85
2020/12/03 07:19:07;;;;;;;60.47;25.57;;;;;;;-0.77;77.62;98540.23;125274;1098;65294;-84
2020/12/03 07:21:46;;;;;;;59.30;25.25;;;;;;;-0.70;77.93;98533.86;125187;1092;65275;-85
2020/12/03 07:24:35;;;;;;;47.00;21.23;;;;;;;-0.63;78.29;98544.11;125420;1098;65319;-83
2020/12/03 07:27:41;;;;;;;45.37;21.80;;;;;;;-0.55;78.23;98546.45;125368;1093;65144;-83
2020/12/03 07:30:09;;;;;;;41.17;19.70;;;;;;;-0.49;78.03;98546.23;125254;1099;65130;-85
2020/12/03 07:32:44;;;;;;;44.13;19.60;;;;;;;-0.46;78.09;98543.48;125308;1098;65194;-85
2020/12/03 07:35:25;;;;;;;40.60;19.80;;;;;;;-0.41;78.42;98548.58;125511;1098;65163;-85
2020/12/03 07:37:59;;;;;;;39.80;18.93;;;;;;;-0.37;78.63;98545.80;125351;1095;65136;-83
2020/12/03 07:40:26;;;;;;;46.20;21.63;;;;;;;-0.32;77.93;98550.86;125645;1095;65607;-84
2020/12/03 07:43:24;;;;;;;46.93;22.33;;;;;;;-0.27;77.38;98552.41;125721;1095;65307;-82
2020/12/03 07:45:51;;;;;;;44.90;20.20;;;;;;;-0.23;77.88;98549.69;125778;1095;65271;-84
2020/12/03 07:48:33;;;;;;;43.17;19.43;;;;;;;-0.20;78.12;98547.79;125537;1096;65140;-85
2020/12/03 07:51:02;;;;;;;44.13;20.63;;;;;;;-0.17;77.27;98541.59;125616;1095;65233;-83
2020/12/03 07:53:32;;;;;;;42.47;19.83;;;;;;;-0.12;77.62;98552.78;125858;1095;65172;-87
2020/12/03 07:55:59;;;;;;;40.50;19.97;;;;;;;-0.08;77.92;98541.23;125563;1095;65246;-83
2020/12/03 07:58:28;;;;;;;36.93;18.40;;;;;;;-0.04;77.82;98540.22;125975;1095;65184;-84
2020/12/03 08:01:03;;;;;;;46.37;21.30;;;;;;;0.01;77.89;98540.91;125679;1095;65265;-85
2020/12/03 08:04:20;;;;;;;42.43;19.33;;;;;;;0.06;77.68;98538.94;125599;1095;65207;-88
2020/12/03 08:06:59;;;;;;;42.40;20.70;;;;;;;0.12;78.18;98538.70;126002;1095;65223;-84
2020/12/03 08:09:39;;;;;;;41.60;19.67;;;;;;;0.15;77.25;98535.98;125637;1096;65309;-84
2020/12/03 08:12:15;;;;;;;46.23;20.07;;;;;;;0.16;77.87;98535.06;125526;1095;65141;-83
2020/12/03 08:14:57;;;;;;;41.60;20.97;;;;;;;0.20;77.58;98538.44;125355;1096;65185;-83
2020/12/03 08:17:23;;;;;;;44.07;19.97;;;;;;;0.22;78.23;98542.70;125542;1095;65089;-83
2020/12/03 08:20:06;;;;;;;39.07;21.50;;;;;;;0.24;78.51;98537.38;125541;1095;65016;-83
2020/12/03 08:22:40;;;;;;;54.73;25.33;;;;;;;0.24;78.05;98530.36;125965;1095;65181;-83
2020/12/03 08:25:28;;;;;;;51.07;23.17;;;;;;;0.26;78.44;98525.92;125738;1095;65158;-83
2020/12/03 08:28:02;;;;;;;54.13;25.13;;;;;;;0.30;78.06;98531.89;125712;1095;65313;-83
2020/12/03 08:33:24;;;;;;;49.10;22.95;;;;;;;0.30;77.59;98523.16;125697;1096;65221;-83
2020/12/03 08:35:57;;;;;;;56.40;25.87;;;;;;;0.32;77.69;98513.45;125831;1095;65150;-84
2020/12/03 08:38:33;;;;;;;52.05;24.25;;;;;;;0.39;78.00;98514.94;125557;1095;65194;-84
2020/12/03 08:41:04;;;;;;;49.20;22.97;;;;;;;0.45;78.20;98504.19;125333;1096;65561;-82
2020/12/03 08:43:33;;;;;;;45.47;21.90;;;;;;;0.50;77.80;98496.95;125559;1095;65182;-86
2020/12/03 08:46:08;;;;;;;43.10;21.63;;;;;;;0.53;77.87;98496.84;125279;1096;65080;-84
2020/12/03 08:48:39;;;;;;;48.10;21.23;;;;;;;0.54;77.70;98495.92;125523;1095;65182;-84
2020/12/03 08:51:09;;;;;;;39.87;21.33;;;;;;;0.59;77.81;98493.13;125547;1095;65086;-85
2020/12/03 08:53:38;;;;;;;37.77;19.00;;;;;;;0.59;77.84;98486.09;125626;1095;65191;-83
2020/12/03 08:56:25;;;;;;;37.10;20.23;;;;;;;0.59;78.26;98498.38;125696;1095;65608;-83
2020/12/03 08:58:58;;;;;;;39.27;19.23;;;;;;;0.62;77.75;98487.72;125909;1095;65157;-83
2020/12/03 09:01:28;;;;;;;34.50;16.80;;;;;;;0.63;77.60;98486.80;125606;1096;65739;-83
2020/12/03 09:03:57;;;;;;;35.50;17.43;;;;;;;0.68;77.92;98487.47;125639;1095;65581;-82
2020/12/03 09:06:32;;;;;;;30.13;15.37;;;;;;;0.70;78.15;98483.88;125649;1095;65224;-84
2020/12/03 09:09:02;;;;;;;29.45;15.25;;;;;;;0.70;77.95;98499.66;125659;1095;65274;-84
2020/12/03 09:11:33;;;;;;;40.65;20.90;;;;;;;0.69;77.74;98492.66;125590;1095;65246;-84
2020/12/03 09:14:01;;;;;;;44.30;21.10;;;;;;;0.69;77.72;98489.17;126349;1095;65202;-82
2020/12/03 09:16:32;;;;;;;37.33;18.33;;;;;;;0.69;77.74;98487.40;125692;1095;65163;-87
2020/12/03 09:18:58;;;;;;;38.97;17.20;;;;;;;0.73;78.16;98481.11;125530;1095;65159;-83
2020/12/03 09:21:30;;;;;;;28.80;16.05;;;;;;;0.78;78.19;98486.19;125638;1095;65176;-84
2020/12/03 09:23:58;;;;;;;32.00;17.17;;;;;;;0.81;78.06;98480.78;125700;1095;65159;-83
2020/12/03 09:26:29;;;;;;;31.13;17.33;;;;;;;0.85;78.07;98476.27;125556;1095;65271;-87
2020/12/03 09:28:57;;;;;;;29.13;16.10;;;;;;;0.89;77.92;98472.57;125513;1095;65172;-82
2020/12/03 09:31:26;;;;;;;86.73;37.47;;;;;;;0.90;78.09;98458.53;125556;1095;65243;-83
2020/12/03 09:33:54;;;;;;;62.33;28.43;;;;;;;0.93;77.53;98459.23;125605;1095;65157;-84
2020/12/03 09:36:21;;;;;;;55.93;23.67;;;;;;;0.94;77.78;98460.09;125572;1095;65221;-84
2020/12/03 09:38:49;;;;;;;70.13;30.77;;;;;;;0.96;77.47;98451.24;125479;1095;65130;-86
2020/12/03 09:41:21;;;;;;;72.17;33.07;;;;;;;0.98;77.62;98448.53;125677;1095;65175;-86
2020/12/03 09:43:53;;;;;;;82.85;33.60;;;;;;;0.96;77.76;98437.24;125625;1095;65086;-87
2020/12/03 09:46:26;;;;;;;100.83;40.47;;;;;;;0.98;78.05;98441.50;125584;1095;65127;-87
2020/12/03 09:48:54;;;;;;;116.97;50.23;;;;;;;1.05;77.86;98447.34;125547;1095;65185;-87
2020/12/03 09:51:24;;;;;;;126.00;51.83;;;;;;;1.07;77.50;98440.23;125684;1095;65189;-83
2020/12/03 09:53:52;;;;;;;121.23;46.83;;;;;;;1.10;77.82;98437.48;125776;1095;65188;-83
2020/12/03 09:56:19;;;;;;;130.80;53.90;;;;;;;1.16;77.94;98433.74;125659;1095;65265;-83
2020/12/03 09:58:56;;;;;;;137.17;58.33;;;;;;;1.18;78.04;98435.37;125804;1095;65150;-85
2020/12/03 10:01:46;;;;;;;117.10;44.27;;;;;;;1.19;77.90;98423.92;125836;1095;65248;-81
2020/12/03 10:04:38;;;;;;;117.77;46.17;;;;;;;1.21;77.72;98416.84;125773;1095;65174;-84
2020/12/03 10:07:29;;;;;;;117.20;45.67;;;;;;;1.22;78.14;98399.28;125730;1095;65175;-84
2020/12/03 10:10:29;;;;;;;115.40;45.53;;;;;;;1.27;78.26;98392.89;125453;1095;65239;-84
2020/12/03 10:13:17;;;;;;;101.57;42.70;;;;;;;1.25;77.70;98397.35;125759;1095;65217;-84
2020/12/03 10:16:04;;;;;;;112.40;44.63;;;;;;;1.28;77.93;98391.12;125693;1095;65197;-81
2020/12/03 10:18:44;;;;;;;119.30;44.77;;;;;;;1.29;77.88;98392.81;125620;1095;65239;-87
2020/12/03 10:21:19;;;;;;;112.50;44.03;;;;;;;1.25;77.99;98381.56;125500;1095;65179;-85
2020/12/03 10:24:01;;;;;;;109.90;42.80;;;;;;;1.33;78.04;98373.32;125577;1095;65277;-82
2020/12/03 10:26:32;;;;;;;124.10;48.47;;;;;;;1.33;77.88;98368.06;125518;1096;65162;-83
2020/12/03 10:29:24;;;;;;;118.17;44.37;;;;;;;1.35;78.25;98355.71;125512;1095;65188;-84
2020/12/03 10:31:52;;;;;;;102.57;40.27;;;;;;;1.34;78.18;98352.23;125454;1095;65303;-84
2020/12/03 10:34:19;;;;;;;96.33;39.23;;;;;;;1.27;77.96;98356.07;125304;1095;65127;-82
2020/12/03 10:36:59;;;;;;;78.53;34.57;;;;;;;1.29;78.43;98350.73;125452;1095;65141;-86
2020/12/03 10:39:37;;;;;;;84.65;36.10;;;;;;;1.29;78.40;98343.69;125699;1095;65102;-81
2020/12/03 10:42:09;;;;;;;68.47;28.53;;;;;;;1.27;78.31;98340.28;126554;1096;65354;-82
2020/12/03 10:44:41;;;;;;;64.57;28.93;;;;;;;1.26;78.67;98341.19;126011;1095;65223;-84
2020/12/03 10:47:13;;;;;;;65.60;28.53;;;;;;;1.28;78.53;98327.98;125600;1096;65255;-83
2020/12/03 10:49:42;;;;;;;47.83;23.37;;;;;;;1.30;78.74;98326.13;125641;1095;65159;-87
2020/12/03 10:52:10;;;;;;;48.10;24.37;;;;;;;1.27;78.49;98332.40;126505;1095;65099;-82
2020/12/03 10:54:37;;;;;;;55.90;26.33;;;;;;;1.26;78.40;98320.14;126010;1096;65178;-83
2020/12/03 10:57:18;;;;;;;53.47;25.23;;;;;;;1.25;78.42;98334.22;125360;1096;65339;-83
2020/12/03 10:59:45;;;;;;;64.20;28.37;;;;;;;1.28;78.76;98325.36;125671;1095;65171;-81
2020/12/03 11:02:19;;;;;;;66.10;29.70;;;;;;;1.32;78.34;98311.97;126032;1095;65076;-83
2020/12/03 11:04:45;;;;;;;68.17;30.43;;;;;;;1.34;78.29;98322.44;125702;1090;65025;-85
2020/12/03 11:07:13;;;;;;;76.27;30.77;;;;;;;1.38;78.45;98323.14;125461;1096;65086;-82
2020/12/03 11:09:42;;;;;;;74.27;32.53;;;;;;;1.36;78.48;98312.69;125505;1095;65166;-84
2020/12/03 11:12:11;;;;;;;70.20;30.50;;;;;;;1.33;78.23;98311.04;125989;1095;65114;-84
2020/12/03 11:14:38;;;;;;;70.70;30.67;;;;;;;1.34;78.45;98306.66;125703;1095;65127;-82
2020/12/03 11:17:23;;;;;;;74.13;30.57;;;;;;;1.37;78.52;98305.66;125612;1095;65166;-85
2020/12/03 11:19:57;;;;;;;65.13;27.60;;;;;;;1.41;78.67;98297.55;125514;1095;65134;-84
2020/12/03 11:23:13;;;;;;;64.65;27.85;;;;;;;1.47;78.17;98301.67;125655;1095;65132;-86
2020/12/03 11:25:40;;;;;;;67.23;29.07;;;;;;;1.51;78.14;98292.69;125937;1095;65345;-87
2020/12/03 11:28:26;;;;;;;70.10;30.17;;;;;;;1.49;78.46;98284.03;125513;1095;66806;-86
2020/12/03 11:30:54;;;;;;;;;;;;;;;1.42;78.03;98287.88;125594;1095;65316;-85
2020/12/03 11:33:25;;;;;;;73.30;30.90;;;;;;;1.32;78.62;98274.29;125549;1095;65130;-88
2020/12/03 11:36:05;;;;;;;67.00;29.30;;;;;;;1.33;78.50;98276.84;125750;1095;65140;-84
2020/12/03 11:38:32;;;;;;;73.90;31.50;;;;;;;1.33;78.46;98279.47;126198;1096;65265;-87